createdAt,value
2019-03-22T07:01:52.618Z,1.00
2019-03-22T07:04:21.502Z,1.00
2019-03-22T07:06:50.399Z,1.00
2019-03-22T07:09:19.293Z,1.00
2019-03-22T07:11:48.182Z,1.00
2019-03-22T07:14:17.072Z,1.00
2019-03-22T07:16:45.963Z,1.00
2019-03-22T07:19:14.853Z,1.00
2019-03-22T07:21:43.745Z,1.00
2019-03-22T07:24:12.608Z,1.00
2019-03-22T07:26:41.629Z,1.00
2019-03-22T07:29:10.519Z,1.00
2019-03-22T07:31:39.428Z,1.00
2019-03-22T07:34:08.464Z,1.00
2019-03-22T07:36:37.499Z,1.00
2019-03-22T07:39:09.118Z,1.00
2019-03-22T07:41:38.046Z,1.00
2019-03-22T07:44:06.938Z,1.00
2019-03-22T07:46:35.816Z,1.00
2019-03-22T07:49:04.721Z,1.00
2019-03-22T08:01:29.069Z,1.00
2019-03-22T08:03:58.514Z,1.00
2019-03-22T08:06:27.363Z,1.00
2019-03-22T08:08:56.255Z,2.00
2019-03-22T08:11:25.253Z,35.70
2019-03-22T08:13:54.248Z,37.00
2019-03-22T08:16:23.139Z,36.20
2019-03-22T08:18:52.021Z,33.30
2019-03-22T08:21:20.911Z,33.90
2019-03-22T08:23:49.795Z,33.70
2019-03-22T08:26:18.809Z,32.70
2019-03-22T08:28:47.686Z,30.30
2019-03-22T08:31:16.580Z,31.30
2019-03-22T08:33:45.595Z,29.50
2019-03-22T08:36:15.051Z,31.30
2019-03-22T08:38:44.712Z,31.10
2019-03-22T08:41:13.676Z,30.80
2019-03-22T08:43:42.553Z,32.70
2019-03-22T08:46:11.458Z,29.70
2019-03-22T08:48:40.351Z,28.50
2019-03-22T08:51:09.360Z,29.30
2019-03-22T08:53:38.233Z,29.10
2019-03-22T08:56:07.225Z,27.90
2019-03-22T08:58:36.219Z,27.20
2019-03-22T09:01:05.110Z,28.30
2019-03-22T09:03:34.023Z,29.20
2019-03-22T09:06:02.998Z,29.90
2019-03-22T09:08:31.893Z,29.30
2019-03-22T09:11:00.776Z,28.70
2019-03-22T09:13:29.768Z,28.40
2019-03-22T09:15:58.673Z,28.90
2019-03-22T09:18:27.652Z,27.80
2019-03-22T09:20:56.651Z,99.90
2019-03-22T09:23:25.524Z,99.90
2019-03-22T09:25:54.462Z,99.90
2019-03-22T09:28:23.421Z,99.90
2019-03-22T09:30:52.311Z,99.90
2019-03-22T09:33:21.214Z,99.90
2019-03-22T09:35:50.195Z,99.90
2019-03-22T09:38:19.187Z,99.90
2019-03-22T09:40:48.101Z,99.90
2019-03-22T09:43:16.970Z,99.90
2019-03-22T09:45:45.971Z,99.90
2019-03-22T09:48:14.988Z,99.90
2019-03-22T09:50:44.551Z,99.90
2019-03-22T09:53:13.454Z,99.90
2019-03-22T09:55:42.376Z,99.90
2019-03-22T09:58:11.354Z,99.90
2019-03-22T10:00:40.275Z,99.90
2019-03-22T10:03:09.232Z,99.90
2019-03-22T10:05:38.124Z,99.90
2019-03-22T10:08:07.003Z,99.90
2019-03-22T10:10:35.888Z,99.90
2019-03-22T10:13:05.367Z,90.60
2019-03-22T10:15:34.376Z,62.30
2019-03-22T10:18:03.388Z,52.80
2019-03-22T10:20:32.380Z,46.90
2019-03-22T10:23:01.275Z,44.60
2019-03-22T10:25:30.175Z,39.80
2019-03-22T10:27:59.163Z,35.50
2019-03-22T10:30:28.081Z,26.40
2019-03-22T10:32:57.168Z,21.80
2019-03-22T10:35:26.711Z,15.20
2019-03-22T10:38:00.971Z,7.00
2019-03-22T10:40:26.987Z,1.00
2019-03-22T10:42:55.974Z,1.00
2019-03-22T10:45:24.876Z,1.00
2019-03-22T10:47:53.826Z,1.00
2019-03-22T10:50:22.891Z,1.00
2019-03-22T10:52:52.393Z,1.00
2019-03-22T10:55:29.741Z,1.00
2019-03-22T10:57:51.782Z,1.00
2019-03-22T11:00:21.283Z,1.00
2019-03-22T11:02:50.283Z,1.00
2019-03-22T11:05:19.175Z,1.00
2019-03-22T11:07:48.063Z,1.00
2019-03-22T11:10:17.055Z,1.00
2019-03-22T11:12:46.051Z,1.00
2019-03-22T11:15:16.396Z,1.00
2019-03-22T11:17:45.264Z,1.00
2019-03-22T11:20:17.445Z,1.00
2019-03-22T11:22:46.321Z,1.00
2019-03-22T11:25:15.931Z,1.00
2019-03-22T11:27:44.824Z,1.00
2019-03-22T11:30:16.988Z,1.00
2019-03-22T11:32:45.878Z,1.00
2019-03-22T11:35:17.050Z,1.00
2019-03-22T11:37:46.016Z,1.00
2019-03-22T11:40:17.359Z,1.00
2019-03-22T11:42:46.971Z,1.00
2019-03-22T11:45:18.736Z,1.00
2019-03-22T11:47:48.336Z,1.00
2019-03-22T11:50:18.963Z,1.00
2019-03-22T11:52:47.962Z,1.00
2019-03-22T11:55:17.671Z,1.00
2019-03-22T11:57:47.989Z,1.00
2019-03-22T12:00:20.061Z,1.00
2019-03-22T12:02:48.952Z,1.00
2019-03-22T12:05:19.552Z,1.00
2019-03-22T12:07:48.481Z,1.00
2019-03-22T12:10:21.655Z,1.00
2019-03-22T12:12:50.556Z,1.00
2019-03-22T12:15:23.852Z,1.00
2019-03-22T12:17:53.458Z,1.00
2019-03-22T12:20:23.495Z,1.00
2019-03-22T12:22:53.443Z,1.00
2019-03-22T12:25:25.088Z,1.00
2019-03-22T12:27:54.038Z,1.00
2019-03-22T12:30:22.885Z,1.00
2019-03-22T12:32:51.821Z,1.00
2019-03-22T12:35:20.814Z,1.00
2019-03-22T12:37:49.809Z,1.00
2019-03-22T12:40:23.696Z,1.00
2019-03-22T12:42:52.606Z,1.00
2019-03-22T12:45:26.810Z,1.00
2019-03-22T12:47:56.122Z,1.00
2019-03-22T12:50:26.841Z,1.00
2019-03-22T12:52:55.747Z,1.00
2019-03-22T12:55:25.378Z,1.00
2019-03-22T12:57:54.332Z,1.00
2019-03-22T13:00:26.208Z,1.00
2019-03-22T13:02:56.020Z,1.00
2019-03-22T13:05:25.016Z,1.00
2019-03-22T13:07:54.698Z,1.00
2019-03-22T13:10:28.755Z,1.00
2019-03-22T13:12:57.625Z,1.00
2019-03-22T13:15:26.516Z,1.00
2019-03-22T13:17:55.452Z,1.00
2019-03-22T13:20:24.402Z,1.00
2019-03-22T13:22:53.396Z,1.00
2019-03-22T13:25:22.232Z,1.00
2019-03-22T13:27:51.176Z,1.00
2019-03-22T13:30:38.559Z,1.00
2019-03-22T13:33:07.594Z,1.00
2019-03-22T13:35:36.485Z,1.00
2019-03-22T13:38:06.296Z,1.00
2019-03-22T13:40:35.097Z,1.00
2019-03-22T13:43:05.444Z,1.00
2019-03-22T13:45:34.322Z,1.00
2019-03-22T13:48:03.212Z,1.00
2019-03-22T13:50:32.064Z,1.00
2019-03-22T13:53:00.908Z,1.00
2019-03-22T13:55:29.888Z,1.00
2019-03-22T13:57:58.738Z,1.00
2019-03-22T14:00:27.688Z,1.00
2019-03-22T14:03:02.905Z,1.00
2019-03-22T14:05:27.072Z,1.00
2019-03-22T14:07:55.957Z,1.00
2019-03-22T14:10:32.625Z,1.00
2019-03-22T14:13:02.566Z,1.00
2019-03-22T14:15:31.406Z,1.00
2019-03-22T14:18:00.591Z,1.00
2019-03-22T14:20:29.944Z,1.00
2019-03-22T14:22:58.794Z,1.00
2019-03-22T14:25:27.668Z,1.00
2019-03-22T14:27:56.518Z,1.00
2019-03-22T14:30:25.495Z,1.00
2019-03-22T14:32:55.349Z,1.00
2019-03-22T14:35:24.194Z,1.00
2019-03-22T14:37:53.073Z,1.00
2019-03-22T14:40:22.067Z,1.00
2019-03-22T14:42:50.928Z,1.00
2019-03-22T14:45:19.785Z,1.00
2019-03-22T14:47:48.645Z,1.00
2019-03-22T14:50:17.539Z,1.00
2019-03-22T14:52:46.434Z,1.00
2019-03-22T14:55:16.534Z,1.00
2019-03-22T14:57:49.313Z,1.00
2019-03-22T15:00:17.064Z,1.00
2019-03-22T15:02:45.991Z,1.00
2019-03-22T15:05:14.882Z,1.00
2019-03-22T15:07:43.875Z,1.00
2019-03-22T15:10:15.735Z,1.00
2019-03-22T15:12:44.626Z,1.00
2019-03-22T15:15:16.486Z,1.00
2019-03-22T15:17:56.129Z,1.00
2019-03-22T15:20:26.664Z,1.00
2019-03-22T15:22:57.803Z,1.00
2019-03-22T15:25:44.719Z,1.00
2019-03-22T15:28:23.993Z,1.00
2019-03-22T15:31:10.749Z,1.00
2019-03-22T15:33:44.213Z,1.00
2019-03-22T15:36:32.899Z,1.00
2019-03-22T15:39:19.184Z,1.00
2019-03-22T15:41:48.261Z,1.00
2019-03-22T15:44:17.149Z,1.00
2019-03-22T15:46:46.054Z,1.00
2019-03-22T15:49:14.933Z,1.00
2019-03-22T15:51:43.776Z,1.00
2019-03-22T15:54:12.625Z,1.00
2019-03-22T15:56:41.504Z,1.00
2019-03-22T15:59:10.352Z,1.00
2019-03-22T16:01:39.199Z,1.00
2019-03-22T16:04:08.175Z,1.00
2019-03-22T16:06:37.012Z,1.00
2019-03-22T16:09:08.152Z,1.00
2019-03-22T16:11:37.139Z,1.00
2019-03-22T16:14:06.037Z,1.00
2019-03-22T16:16:34.929Z,1.00
2019-03-22T16:19:04.024Z,1.00
2019-03-22T16:21:32.916Z,1.00
2019-03-22T16:24:01.908Z,1.00
2019-03-22T16:26:31.825Z,1.00
2019-03-22T16:29:01.124Z,1.00
2019-03-22T16:31:29.984Z,1.00
2019-03-22T16:33:58.922Z,1.00
2019-03-22T16:36:27.808Z,1.00
2019-03-22T16:38:56.754Z,1.00
2019-03-22T16:41:25.612Z,1.00
2019-03-22T16:43:54.483Z,1.00
2019-03-22T16:48:52.286Z,1.00
2019-03-22T16:51:21.243Z,1.00
2019-03-22T16:53:50.313Z,1.00
2019-03-22T16:56:19.353Z,1.00
2019-03-22T16:58:48.352Z,1.00
2019-03-22T17:01:17.192Z,1.00
2019-03-22T17:03:46.140Z,1.00
2019-03-22T17:06:15.024Z,1.00
2019-03-22T17:08:43.876Z,1.00
2019-03-22T17:11:13.320Z,1.00
2019-03-22T17:13:42.311Z,1.00
2019-03-22T17:28:34.110Z,1.00
2019-03-22T17:31:02.943Z,1.00
2019-03-22T18:00:46.446Z,1.00
2019-03-22T18:03:15.328Z,1.00
2019-03-22T18:05:44.163Z,1.00
2019-03-22T18:08:13.067Z,1.00
2019-03-22T18:10:41.958Z,1.00
2019-03-22T18:13:10.850Z,1.00
2019-03-22T18:15:39.740Z,1.00
2019-03-22T18:18:08.633Z,1.00
2019-03-22T18:20:37.521Z,1.00
2019-03-22T18:23:06.412Z,1.00
2019-03-22T18:30:32.367Z,1.00
2019-03-22T18:33:01.363Z,1.00
2019-03-22T18:35:30.254Z,1.00
2019-03-22T18:37:59.142Z,1.00
2019-03-22T18:40:28.139Z,1.00
2019-03-22T18:42:57.131Z,1.00
2019-03-22T18:45:26.001Z,1.00
2019-03-22T18:47:54.885Z,1.00
2019-03-22T18:50:23.735Z,1.00
2019-03-22T18:52:52.687Z,1.00
2019-03-22T18:55:21.994Z,1.00
2019-03-22T18:57:50.938Z,1.00
2019-03-22T19:00:19.768Z,1.00
2019-03-22T19:02:48.662Z,1.00
2019-03-22T19:05:17.513Z,1.00
2019-03-22T19:07:46.356Z,1.00
2019-03-22T19:10:15.852Z,1.00
2019-03-22T19:12:44.683Z,1.00
2019-03-22T19:15:14.571Z,1.00
2019-03-22T19:17:43.412Z,1.00
2019-03-22T19:20:13.868Z,1.00
2019-03-22T19:22:42.760Z,1.00
2019-03-22T19:25:14.598Z,1.00
2019-03-22T19:27:43.570Z,1.00
2019-03-22T19:30:16.277Z,1.00
2019-03-22T19:32:45.126Z,1.00
2019-03-22T19:35:14.182Z,1.00
2019-03-22T19:37:43.065Z,1.00
2019-03-22T19:40:14.872Z,1.00
2019-03-22T19:42:43.815Z,1.00
2019-03-22T19:45:14.234Z,1.00
2019-03-22T19:47:44.572Z,1.00
2019-03-22T19:50:15.689Z,1.00
2019-03-22T19:52:44.589Z,1.00
2019-03-22T19:55:14.312Z,1.00
2019-03-22T19:57:43.165Z,1.00
2019-03-22T20:00:21.678Z,1.00
2019-03-22T20:02:50.512Z,1.00
2019-03-22T20:05:30.057Z,1.00
2019-03-22T20:07:58.942Z,1.00
2019-03-22T20:10:27.833Z,1.00
2019-03-22T21:29:53.055Z,1.00
2019-03-22T21:32:21.946Z,1.00
2019-03-22T21:34:50.836Z,1.00
2019-03-22T21:37:19.830Z,1.00
2019-03-22T21:39:48.925Z,1.00
2019-03-22T21:42:17.760Z,1.00
2019-03-22T21:44:46.646Z,1.00
2019-03-22T21:47:15.677Z,1.00
2019-03-22T21:49:44.511Z,1.00
2019-03-22T21:52:13.395Z,1.00
2019-03-22T21:54:42.252Z,1.00
2019-03-22T21:57:11.143Z,1.00
2019-03-22T21:59:39.985Z,1.00
2019-03-22T22:02:08.829Z,1.00
2019-03-22T22:04:37.716Z,1.00
2019-03-22T22:07:06.557Z,1.00
2019-03-22T22:09:35.410Z,1.00
2019-03-22T22:12:04.386Z,1.00
2019-03-22T22:14:40.730Z,1.00
2019-03-22T22:17:03.715Z,1.00
2019-03-22T22:19:32.599Z,1.00
2019-03-22T22:22:01.443Z,1.00
2019-03-22T22:24:30.392Z,1.00
2019-03-22T22:26:59.402Z,1.00
2019-03-22T22:29:28.277Z,1.00
2019-03-22T22:31:57.127Z,1.00
2019-03-22T22:34:26.058Z,1.00
2019-03-22T22:36:54.949Z,1.00
2019-03-22T22:39:23.942Z,1.00
2019-03-22T22:41:52.836Z,1.00
2019-03-22T22:44:21.680Z,1.00
2019-03-22T22:46:50.533Z,1.00
2019-03-22T22:49:19.424Z,1.00
